Terminal Aerodrome Forecast
Issued by NWS

Home | Current Version | Previous Version | Text Only | Print | Product List | Glossary On
Versions: 1 2 3 4 5 6 7 8 9 10 11 12 13 14 15 16
000
FTUS43 KDVN 210411 AAA
TAFBRL
TAF AMD
KBRL 210411Z 2104/2124 VRB03KT P6SM BKN040
     FM211000 VRB03KT 3SM BR OVC008
     FM211300 13004KT 1SM -DZ BR OVC004
     FM211800 12006KT 2SM -RA BR OVC006=

USA.gov is the U.S. government's official web portal to all federal, state and local government web resources and services.